sensor_id;sensor_type;location;lat;lon;timestamp;P1;durP1;ratioP1;P2;durP2;ratioP2
11933;SDS011;6026;48.784;9.198;2024-03-02T00:00:51;0.30;;;0.30;;
11933;SDS011;6026;48.784;9.198;2024-03-02T00:03:17;0.37;;;0.37;;
11933;SDS011;6026;48.784;9.198;2024-03-02T00:05:43;0.30;;;0.30;;
11933;SDS011;6026;48.784;9.198;2024-03-02T00:08:10;0.20;;;0.20;;
11933;SDS011;6026;48.784;9.198;2024-03-02T00:10:38;0.20;;;0.20;;
11933;SDS011;6026;48.784;9.198;2024-03-02T00:13:05;0.50;;;0.50;;
11933;SDS011;6026;48.784;9.198;2024-03-02T00:18:08;0.33;;;0.33;;
11933;SDS011;6026;48.784;9.198;2024-03-02T00:20:36;0.40;;;0.40;;
11933;SDS011;6026;48.784;9.198;2024-03-02T00:23:06;0.10;;;0.10;;
11933;SDS011;6026;48.784;9.198;2024-03-02T00:25:37;0.30;;;0.30;;
11933;SDS011;6026;48.784;9.198;2024-03-02T00:28:06;0.20;;;0.20;;
11933;SDS011;6026;48.784;9.198;2024-03-02T00:33:21;0.20;;;0.20;;
11933;SDS011;6026;48.784;9.198;2024-03-02T00:35:48;0.20;;;0.20;;
11933;SDS011;6026;48.784;9.198;2024-03-02T00:38:14;0.23;;;0.23;;
11933;SDS011;6026;48.784;9.198;2024-03-02T00:40:41;0.20;;;0.20;;
11933;SDS011;6026;48.784;9.198;2024-03-02T00:43:11;0.10;;;0.10;;
11933;SDS011;6026;48.784;9.198;2024-03-02T00:45:50;0.13;;;0.13;;
11933;SDS011;6026;48.784;9.198;2024-03-02T00:48:15;0.20;;;0.20;;
11933;SDS011;6026;48.784;9.198;2024-03-02T00:50:41;0.17;;;0.17;;
11933;SDS011;6026;48.784;9.198;2024-03-02T00:53:09;0.23;;;0.23;;
11933;SDS011;6026;48.784;9.198;2024-03-02T00:55:36;0.17;;;0.17;;
11933;SDS011;6026;48.784;9.198;2024-03-02T00:58:03;0.20;;;0.20;;
11933;SDS011;6026;48.784;9.198;2024-03-02T01:00:28;0.20;;;0.20;;
11933;SDS011;6026;48.784;9.198;2024-03-02T01:02:54;0.30;;;0.30;;
11933;SDS011;6026;48.784;9.198;2024-03-02T01:05:19;0.10;;;0.10;;
11933;SDS011;6026;48.784;9.198;2024-03-02T01:07:45;0.30;;;0.30;;
11933;SDS011;6026;48.784;9.198;2024-03-02T01:10:11;0.20;;;0.20;;
11933;SDS011;6026;48.784;9.198;2024-03-02T01:12:36;0.20;;;0.20;;
11933;SDS011;6026;48.784;9.198;2024-03-02T01:15:02;0.20;;;0.20;;
11933;SDS011;6026;48.784;9.198;2024-03-02T01:17:30;0.20;;;0.20;;
11933;SDS011;6026;48.784;9.198;2024-03-02T01:19:56;0.20;;;0.20;;
11933;SDS011;6026;48.784;9.198;2024-03-02T01:22:22;0.20;;;0.20;;
11933;SDS011;6026;48.784;9.198;2024-03-02T01:24:50;0.30;;;0.30;;
11933;SDS011;6026;48.784;9.198;2024-03-02T01:27:16;0.53;;;0.53;;
11933;SDS011;6026;48.784;9.198;2024-03-02T01:29:41;0.20;;;0.20;;
11933;SDS011;6026;48.784;9.198;2024-03-02T01:32:07;0.30;;;0.30;;
11933;SDS011;6026;48.784;9.198;2024-03-02T01:34:33;0.20;;;0.20;;
11933;SDS011;6026;48.784;9.198;2024-03-02T01:37:00;0.10;;;0.10;;
11933;SDS011;6026;48.784;9.198;2024-03-02T01:39:26;0.17;;;0.17;;
11933;SDS011;6026;48.784;9.198;2024-03-02T01:41:51;0.27;;;0.27;;
11933;SDS011;6026;48.784;9.198;2024-03-02T01:44:17;0.20;;;0.20;;
11933;SDS011;6026;48.784;9.198;2024-03-02T01:46:42;0.20;;;0.20;;
11933;SDS011;6026;48.784;9.198;2024-03-02T01:49:08;0.30;;;0.30;;
11933;SDS011;6026;48.784;9.198;2024-03-02T01:51:33;0.20;;;0.20;;
11933;SDS011;6026;48.784;9.198;2024-03-02T01:53:59;0.10;;;0.10;;
11933;SDS011;6026;48.784;9.198;2024-03-02T01:56:25;0.10;;;0.10;;
11933;SDS011;6026;48.784;9.198;2024-03-02T01:58:50;0.20;;;0.20;;
11933;SDS011;6026;48.784;9.198;2024-03-02T02:01:16;0.20;;;0.20;;
11933;SDS011;6026;48.784;9.198;2024-03-02T02:03:42;1.27;;;1.27;;
11933;SDS011;6026;48.784;9.198;2024-03-02T02:06:09;0.10;;;0.10;;
11933;SDS011;6026;48.784;9.198;2024-03-02T02:08:36;0.13;;;0.13;;
11933;SDS011;6026;48.784;9.198;2024-03-02T02:11:02;0.13;;;0.13;;
11933;SDS011;6026;48.784;9.198;2024-03-02T02:13:28;1.03;;;1.03;;
11933;SDS011;6026;48.784;9.198;2024-03-02T02:15:53;0.20;;;0.20;;
11933;SDS011;6026;48.784;9.198;2024-03-02T02:18:19;0.20;;;0.20;;
11933;SDS011;6026;48.784;9.198;2024-03-02T02:20:45;0.30;;;0.30;;
11933;SDS011;6026;48.784;9.198;2024-03-02T02:23:10;0.20;;;0.20;;
11933;SDS011;6026;48.784;9.198;2024-03-02T02:25:37;0.20;;;0.20;;
11933;SDS011;6026;48.784;9.198;2024-03-02T02:28:03;0.20;;;0.20;;
11933;SDS011;6026;48.784;9.198;2024-03-02T02:30:29;0.20;;;0.20;;
11933;SDS011;6026;48.784;9.198;2024-03-02T02:32:56;0.20;;;0.20;;
11933;SDS011;6026;48.784;9.198;2024-03-02T02:35:22;0.17;;;0.17;;
11933;SDS011;6026;48.784;9.198;2024-03-02T02:37:49;0.10;;;0.10;;
11933;SDS011;6026;48.784;9.198;2024-03-02T02:40:15;0.20;;;0.20;;
11933;SDS011;6026;48.784;9.198;2024-03-02T02:42:41;0.20;;;0.20;;
11933;SDS011;6026;48.784;9.198;2024-03-02T02:45:08;0.10;;;0.10;;
11933;SDS011;6026;48.784;9.198;2024-03-02T02:47:34;0.10;;;0.10;;
11933;SDS011;6026;48.784;9.198;2024-03-02T02:50:03;0.20;;;0.20;;
11933;SDS011;6026;48.784;9.198;2024-03-02T02:52:36;0.20;;;0.20;;
11933;SDS011;6026;48.784;9.198;2024-03-02T02:55:04;0.13;;;0.13;;
11933;SDS011;6026;48.784;9.198;2024-03-02T02:57:32;0.07;;;0.07;;
11933;SDS011;6026;48.784;9.198;2024-03-02T03:00:02;0.10;;;0.10;;
11933;SDS011;6026;48.784;9.198;2024-03-02T03:02:35;0.10;;;0.10;;
11933;SDS011;6026;48.784;9.198;2024-03-02T03:05:02;0.10;;;0.10;;
11933;SDS011;6026;48.784;9.198;2024-03-02T03:07:28;0.20;;;0.20;;
11933;SDS011;6026;48.784;9.198;2024-03-02T03:09:54;0.10;;;0.10;;
11933;SDS011;6026;48.784;9.198;2024-03-02T03:12:19;0.10;;;0.10;;
11933;SDS011;6026;48.784;9.198;2024-03-02T03:14:45;0.20;;;0.20;;
11933;SDS011;6026;48.784;9.198;2024-03-02T03:17:10;0.20;;;0.20;;
11933;SDS011;6026;48.784;9.198;2024-03-02T03:19:37;0.20;;;0.20;;
11933;SDS011;6026;48.784;9.198;2024-03-02T03:22:03;0.10;;;0.10;;
11933;SDS011;6026;48.784;9.198;2024-03-02T03:24:29;0.10;;;0.10;;
11933;SDS011;6026;48.784;9.198;2024-03-02T03:26:54;0.13;;;0.13;;
11933;SDS011;6026;48.784;9.198;2024-03-02T03:29:20;0.10;;;0.10;;
11933;SDS011;6026;48.784;9.198;2024-03-02T03:31:46;0.10;;;0.10;;
11933;SDS011;6026;48.784;9.198;2024-03-02T03:34:11;0.10;;;0.10;;
11933;SDS011;6026;48.784;9.198;2024-03-02T03:36:40;0.10;;;0.10;;
11933;SDS011;6026;48.784;9.198;2024-03-02T03:39:06;0.13;;;0.13;;
11933;SDS011;6026;48.784;9.198;2024-03-02T03:41:32;0.10;;;0.10;;
11933;SDS011;6026;48.784;9.198;2024-03-02T03:43:57;0.20;;;0.20;;
11933;SDS011;6026;48.784;9.198;2024-03-02T03:46:23;0.20;;;0.20;;
11933;SDS011;6026;48.784;9.198;2024-03-02T03:48:49;0.20;;;0.20;;
11933;SDS011;6026;48.784;9.198;2024-03-02T03:51:14;0.20;;;0.20;;
11933;SDS011;6026;48.784;9.198;2024-03-02T03:53:40;0.20;;;0.20;;
11933;SDS011;6026;48.784;9.198;2024-03-02T03:56:05;0.20;;;0.20;;
11933;SDS011;6026;48.784;9.198;2024-03-02T03:58:31;0.20;;;0.20;;
11933;SDS011;6026;48.784;9.198;2024-03-02T04:00:57;0.10;;;0.10;;
11933;SDS011;6026;48.784;9.198;2024-03-02T04:03:22;0.10;;;0.10;;
11933;SDS011;6026;48.784;9.198;2024-03-02T04:05:48;0.10;;;0.10;;
11933;SDS011;6026;48.784;9.198;2024-03-02T04:08:13;0.20;;;0.20;;
11933;SDS011;6026;48.784;9.198;2024-03-02T04:10:39;0.10;;;0.10;;
11933;SDS011;6026;48.784;9.198;2024-03-02T04:13:05;0.13;;;0.13;;
11933;SDS011;6026;48.784;9.198;2024-03-02T04:15:31;0.20;;;0.20;;
11933;SDS011;6026;48.784;9.198;2024-03-02T04:17:56;0.20;;;0.20;;
11933;SDS011;6026;48.784;9.198;2024-03-02T04:20:22;0.20;;;0.20;;
11933;SDS011;6026;48.784;9.198;2024-03-02T04:22:47;0.10;;;0.10;;
11933;SDS011;6026;48.784;9.198;2024-03-02T04:25:13;0.10;;;0.10;;
11933;SDS011;6026;48.784;9.198;2024-03-02T04:27:38;0.20;;;0.20;;
11933;SDS011;6026;48.784;9.198;2024-03-02T04:30:04;0.20;;;0.20;;
11933;SDS011;6026;48.784;9.198;2024-03-02T04:32:30;0.20;;;0.20;;
11933;SDS011;6026;48.784;9.198;2024-03-02T04:34:56;0.10;;;0.10;;
11933;SDS011;6026;48.784;9.198;2024-03-02T04:37:22;0.20;;;0.20;;
11933;SDS011;6026;48.784;9.198;2024-03-02T04:39:48;0.10;;;0.10;;
11933;SDS011;6026;48.784;9.198;2024-03-02T04:42:13;0.10;;;0.10;;
11933;SDS011;6026;48.784;9.198;2024-03-02T04:44:39;0.10;;;0.10;;
11933;SDS011;6026;48.784;9.198;2024-03-02T04:47:04;0.57;;;0.57;;
11933;SDS011;6026;48.784;9.198;2024-03-02T04:49:30;0.10;;;0.10;;
11933;SDS011;6026;48.784;9.198;2024-03-02T04:51:56;0.17;;;0.17;;
11933;SDS011;6026;48.784;9.198;2024-03-02T04:54:24;0.10;;;0.10;;
11933;SDS011;6026;48.784;9.198;2024-03-02T04:56:50;0.20;;;0.20;;
11933;SDS011;6026;48.784;9.198;2024-03-02T04:59:16;0.20;;;0.20;;
11933;SDS011;6026;48.784;9.198;2024-03-02T05:01:43;0.10;;;0.10;;
11933;SDS011;6026;48.784;9.198;2024-03-02T05:04:09;0.20;;;0.20;;
11933;SDS011;6026;48.784;9.198;2024-03-02T05:06:36;0.20;;;0.20;;
11933;SDS011;6026;48.784;9.198;2024-03-02T05:09:03;0.10;;;0.10;;
11933;SDS011;6026;48.784;9.198;2024-03-02T05:11:29;0.20;;;0.20;;
11933;SDS011;6026;48.784;9.198;2024-03-02T05:14:00;0.20;;;0.20;;
11933;SDS011;6026;48.784;9.198;2024-03-02T05:16:26;0.03;;;0.03;;
11933;SDS011;6026;48.784;9.198;2024-03-02T05:18:51;0.10;;;0.10;;
11933;SDS011;6026;48.784;9.198;2024-03-02T05:21:17;0.10;;;0.10;;
11933;SDS011;6026;48.784;9.198;2024-03-02T05:23:42;0.10;;;0.10;;
11933;SDS011;6026;48.784;9.198;2024-03-02T05:26:09;0.10;;;0.10;;
11933;SDS011;6026;48.784;9.198;2024-03-02T05:28:37;0.10;;;0.10;;
11933;SDS011;6026;48.784;9.198;2024-03-02T05:31:03;0.10;;;0.10;;
11933;SDS011;6026;48.784;9.198;2024-03-02T05:33:29;0.20;;;0.20;;
11933;SDS011;6026;48.784;9.198;2024-03-02T05:35:56;0.20;;;0.20;;
11933;SDS011;6026;48.784;9.198;2024-03-02T05:38:22;0.10;;;0.10;;
11933;SDS011;6026;48.784;9.198;2024-03-02T05:40:47;0.10;;;0.10;;
11933;SDS011;6026;48.784;9.198;2024-03-02T05:43:13;0.20;;;0.20;;
11933;SDS011;6026;48.784;9.198;2024-03-02T05:45:39;0.10;;;0.10;;
11933;SDS011;6026;48.784;9.198;2024-03-02T05:48:06;0.10;;;0.10;;
11933;SDS011;6026;48.784;9.198;2024-03-02T05:50:32;0.37;;;0.37;;
11933;SDS011;6026;48.784;9.198;2024-03-02T05:52:58;0.17;;;0.17;;
11933;SDS011;6026;48.784;9.198;2024-03-02T05:55:24;0.20;;;0.20;;
11933;SDS011;6026;48.784;9.198;2024-03-02T05:57:49;0.10;;;0.10;;
11933;SDS011;6026;48.784;9.198;2024-03-02T06:00:35;0.20;;;0.20;;
11933;SDS011;6026;48.784;9.198;2024-03-02T06:03:00;0.10;;;0.10;;
11933;SDS011;6026;48.784;9.198;2024-03-02T06:05:26;0.17;;;0.17;;
11933;SDS011;6026;48.784;9.198;2024-03-02T06:07:52;0.10;;;0.10;;
11933;SDS011;6026;48.784;9.198;2024-03-02T06:10:17;0.10;;;0.10;;
11933;SDS011;6026;48.784;9.198;2024-03-02T06:12:43;0.10;;;0.10;;
11933;SDS011;6026;48.784;9.198;2024-03-02T06:15:09;0.10;;;0.10;;
11933;SDS011;6026;48.784;9.198;2024-03-02T06:17:35;0.20;;;0.20;;
11933;SDS011;6026;48.784;9.198;2024-03-02T06:20:01;0.10;;;0.10;;
11933;SDS011;6026;48.784;9.198;2024-03-02T06:22:27;0.10;;;0.10;;
11933;SDS011;6026;48.784;9.198;2024-03-02T06:24:53;0.20;;;0.20;;
11933;SDS011;6026;48.784;9.198;2024-03-02T06:27:18;0.10;;;0.10;;
11933;SDS011;6026;48.784;9.198;2024-03-02T06:29:44;0.17;;;0.17;;
11933;SDS011;6026;48.784;9.198;2024-03-02T06:32:10;0.10;;;0.10;;
11933;SDS011;6026;48.784;9.198;2024-03-02T06:34:35;0.10;;;0.10;;
11933;SDS011;6026;48.784;9.198;2024-03-02T06:37:01;0.10;;;0.10;;
11933;SDS011;6026;48.784;9.198;2024-03-02T06:39:27;0.10;;;0.10;;
11933;SDS011;6026;48.784;9.198;2024-03-02T06:41:52;0.10;;;0.10;;
11933;SDS011;6026;48.784;9.198;2024-03-02T06:44:18;0.10;;;0.10;;
11933;SDS011;6026;48.784;9.198;2024-03-02T06:46:43;0.20;;;0.20;;
11933;SDS011;6026;48.784;9.198;2024-03-02T06:49:09;0.10;;;0.10;;
11933;SDS011;6026;48.784;9.198;2024-03-02T06:51:35;0.20;;;0.20;;
11933;SDS011;6026;48.784;9.198;2024-03-02T06:54:01;0.10;;;0.10;;
11933;SDS011;6026;48.784;9.198;2024-03-02T06:56:27;0.20;;;0.20;;
11933;SDS011;6026;48.784;9.198;2024-03-02T06:58:52;0.30;;;0.30;;
11933;SDS011;6026;48.784;9.198;2024-03-02T07:01:18;0.13;;;0.13;;
11933;SDS011;6026;48.784;9.198;2024-03-02T07:03:45;0.10;;;0.10;;
11933;SDS011;6026;48.784;9.198;2024-03-02T07:06:10;0.20;;;0.20;;
11933;SDS011;6026;48.784;9.198;2024-03-02T07:08:36;0.10;;;0.10;;
11933;SDS011;6026;48.784;9.198;2024-03-02T07:11:02;0.20;;;0.20;;
11933;SDS011;6026;48.784;9.198;2024-03-02T07:13:27;0.20;;;0.20;;
11933;SDS011;6026;48.784;9.198;2024-03-02T07:15:53;0.10;;;0.10;;
11933;SDS011;6026;48.784;9.198;2024-03-02T07:18:36;0.17;;;0.17;;
11933;SDS011;6026;48.784;9.198;2024-03-02T07:21:06;0.20;;;0.20;;
11933;SDS011;6026;48.784;9.198;2024-03-02T07:23:32;0.30;;;0.30;;
11933;SDS011;6026;48.784;9.198;2024-03-02T07:25:59;0.20;;;0.20;;
11933;SDS011;6026;48.784;9.198;2024-03-02T07:28:26;0.37;;;0.37;;
11933;SDS011;6026;48.784;9.198;2024-03-02T07:31:02;0.27;;;0.27;;
11933;SDS011;6026;48.784;9.198;2024-03-02T07:33:29;0.20;;;0.20;;
11933;SDS011;6026;48.784;9.198;2024-03-02T07:35:55;1.43;;;1.43;;
11933;SDS011;6026;48.784;9.198;2024-03-02T07:38:21;0.40;;;0.40;;
11933;SDS011;6026;48.784;9.198;2024-03-02T07:40:48;0.40;;;0.40;;
11933;SDS011;6026;48.784;9.198;2024-03-02T07:43:18;0.50;;;0.50;;
11933;SDS011;6026;48.784;9.198;2024-03-02T07:45:44;0.50;;;0.50;;
11933;SDS011;6026;48.784;9.198;2024-03-02T07:48:10;0.30;;;0.30;;
11933;SDS011;6026;48.784;9.198;2024-03-02T07:50:36;0.27;;;0.27;;
11933;SDS011;6026;48.784;9.198;2024-03-02T07:53:02;0.40;;;0.40;;
11933;SDS011;6026;48.784;9.198;2024-03-02T07:55:28;0.60;;;0.60;;
11933;SDS011;6026;48.784;9.198;2024-03-02T07:57:55;0.37;;;0.37;;
11933;SDS011;6026;48.784;9.198;2024-03-02T08:00:21;0.50;;;0.50;;
11933;SDS011;6026;48.784;9.198;2024-03-02T08:02:47;0.30;;;0.30;;
11933;SDS011;6026;48.784;9.198;2024-03-02T08:05:13;0.30;;;0.30;;
11933;SDS011;6026;48.784;9.198;2024-03-02T08:07:39;0.47;;;0.47;;
11933;SDS011;6026;48.784;9.198;2024-03-02T08:10:05;0.30;;;0.30;;
11933;SDS011;6026;48.784;9.198;2024-03-02T08:12:31;0.20;;;0.20;;
11933;SDS011;6026;48.784;9.198;2024-03-02T08:14:56;0.50;;;0.50;;
11933;SDS011;6026;48.784;9.198;2024-03-02T08:17:22;0.47;;;0.47;;
11933;SDS011;6026;48.784;9.198;2024-03-02T08:19:47;0.50;;;0.50;;
11933;SDS011;6026;48.784;9.198;2024-03-02T08:22:14;0.40;;;0.40;;
11933;SDS011;6026;48.784;9.198;2024-03-02T08:24:40;0.50;;;0.50;;
11933;SDS011;6026;48.784;9.198;2024-03-02T08:27:06;0.50;;;0.50;;
11933;SDS011;6026;48.784;9.198;2024-03-02T08:29:31;0.47;;;0.47;;
11933;SDS011;6026;48.784;9.198;2024-03-02T08:31:57;0.30;;;0.30;;
11933;SDS011;6026;48.784;9.198;2024-03-02T08:34:22;0.50;;;0.50;;
11933;SDS011;6026;48.784;9.198;2024-03-02T08:36:48;0.50;;;0.50;;
11933;SDS011;6026;48.784;9.198;2024-03-02T08:39:14;0.50;;;0.50;;
11933;SDS011;6026;48.784;9.198;2024-03-02T08:41:43;0.60;;;0.60;;
11933;SDS011;6026;48.784;9.198;2024-03-02T08:44:10;0.60;;;0.60;;
11933;SDS011;6026;48.784;9.198;2024-03-02T08:46:36;0.43;;;0.43;;
11933;SDS011;6026;48.784;9.198;2024-03-02T08:49:02;0.40;;;0.40;;
11933;SDS011;6026;48.784;9.198;2024-03-02T08:51:28;0.60;;;0.60;;
11933;SDS011;6026;48.784;9.198;2024-03-02T08:53:53;0.70;;;0.70;;
11933;SDS011;6026;48.784;9.198;2024-03-02T08:56:19;0.70;;;0.70;;
11933;SDS011;6026;48.784;9.198;2024-03-02T08:58:46;0.80;;;0.80;;
11933;SDS011;6026;48.784;9.198;2024-03-02T09:01:12;0.70;;;0.70;;
11933;SDS011;6026;48.784;9.198;2024-03-02T09:03:37;0.50;;;0.50;;
11933;SDS011;6026;48.784;9.198;2024-03-02T09:06:03;0.70;;;0.70;;
11933;SDS011;6026;48.784;9.198;2024-03-02T09:08:29;0.80;;;0.80;;
11933;SDS011;6026;48.784;9.198;2024-03-02T09:10:55;0.70;;;0.70;;
11933;SDS011;6026;48.784;9.198;2024-03-02T09:13:21;0.83;;;0.83;;
11933;SDS011;6026;48.784;9.198;2024-03-02T09:15:47;0.90;;;0.90;;
11933;SDS011;6026;48.784;9.198;2024-03-02T09:18:13;0.70;;;0.70;;
11933;SDS011;6026;48.784;9.198;2024-03-02T09:20:38;0.90;;;0.90;;
11933;SDS011;6026;48.784;9.198;2024-03-02T09:23:04;0.90;;;0.90;;
11933;SDS011;6026;48.784;9.198;2024-03-02T09:25:29;0.90;;;0.90;;
11933;SDS011;6026;48.784;9.198;2024-03-02T09:27:55;0.90;;;0.90;;
11933;SDS011;6026;48.784;9.198;2024-03-02T09:30:21;1.00;;;1.00;;
11933;SDS011;6026;48.784;9.198;2024-03-02T09:32:47;0.90;;;0.90;;
11933;SDS011;6026;48.784;9.198;2024-03-02T09:35:12;1.00;;;1.00;;
11933;SDS011;6026;48.784;9.198;2024-03-02T09:37:38;0.90;;;0.90;;
11933;SDS011;6026;48.784;9.198;2024-03-02T09:40:04;0.90;;;0.90;;
11933;SDS011;6026;48.784;9.198;2024-03-02T09:42:31;0.90;;;0.90;;
11933;SDS011;6026;48.784;9.198;2024-03-02T09:44:57;0.90;;;0.90;;
11933;SDS011;6026;48.784;9.198;2024-03-02T09:47:23;1.10;;;1.10;;
11933;SDS011;6026;48.784;9.198;2024-03-02T09:49:49;0.80;;;0.80;;
11933;SDS011;6026;48.784;9.198;2024-03-02T09:52:14;0.70;;;0.70;;
11933;SDS011;6026;48.784;9.198;2024-03-02T09:54:41;0.90;;;0.90;;
11933;SDS011;6026;48.784;9.198;2024-03-02T09:57:06;0.90;;;0.90;;
11933;SDS011;6026;48.784;9.198;2024-03-02T09:59:32;0.90;;;0.90;;
11933;SDS011;6026;48.784;9.198;2024-03-02T10:01:58;0.90;;;0.90;;
11933;SDS011;6026;48.784;9.198;2024-03-02T10:04:25;0.73;;;0.73;;
11933;SDS011;6026;48.784;9.198;2024-03-02T10:06:55;0.80;;;0.80;;
11933;SDS011;6026;48.784;9.198;2024-03-02T10:09:41;1.03;;;1.03;;
11933;SDS011;6026;48.784;9.198;2024-03-02T10:12:08;0.87;;;0.87;;
11933;SDS011;6026;48.784;9.198;2024-03-02T10:14:36;0.90;;;0.90;;
11933;SDS011;6026;48.784;9.198;2024-03-02T10:17:03;0.93;;;0.93;;
11933;SDS011;6026;48.784;9.198;2024-03-02T10:19:29;0.63;;;0.63;;
11933;SDS011;6026;48.784;9.198;2024-03-02T10:22:00;0.80;;;0.80;;
11933;SDS011;6026;48.784;9.198;2024-03-02T10:24:27;1.00;;;1.00;;
11933;SDS011;6026;48.784;9.198;2024-03-02T10:26:53;0.70;;;0.70;;
11933;SDS011;6026;48.784;9.198;2024-03-02T10:29:19;0.80;;;0.80;;
11933;SDS011;6026;48.784;9.198;2024-03-02T10:31:45;0.77;;;0.77;;
11933;SDS011;6026;48.784;9.198;2024-03-02T10:34:12;0.73;;;0.73;;
11933;SDS011;6026;48.784;9.198;2024-03-02T10:36:40;0.80;;;0.80;;
11933;SDS011;6026;48.784;9.198;2024-03-02T10:39:07;1.00;;;1.00;;
11933;SDS011;6026;48.784;9.198;2024-03-02T10:41:34;1.13;;;1.13;;
11933;SDS011;6026;48.784;9.198;2024-03-02T10:44:04;1.00;;;1.00;;
11933;SDS011;6026;48.784;9.198;2024-03-02T10:46:31;0.93;;;0.93;;
11933;SDS011;6026;48.784;9.198;2024-03-02T10:48:58;0.87;;;0.87;;
11933;SDS011;6026;48.784;9.198;2024-03-02T10:51:29;0.90;;;0.90;;
11933;SDS011;6026;48.784;9.198;2024-03-02T10:53:57;0.80;;;0.80;;
11933;SDS011;6026;48.784;9.198;2024-03-02T10:56:47;0.80;;;0.80;;
11933;SDS011;6026;48.784;9.198;2024-03-02T10:59:27;1.00;;;1.00;;
11933;SDS011;6026;48.784;9.198;2024-03-02T11:01:58;0.90;;;0.90;;
11933;SDS011;6026;48.784;9.198;2024-03-02T11:04:26;0.90;;;0.90;;
11933;SDS011;6026;48.784;9.198;2024-03-02T11:06:54;0.83;;;0.83;;
11933;SDS011;6026;48.784;9.198;2024-03-02T11:09:30;1.00;;;1.00;;
11933;SDS011;6026;48.784;9.198;2024-03-02T11:12:03;0.93;;;0.93;;
11933;SDS011;6026;48.784;9.198;2024-03-02T11:14:32;0.90;;;0.90;;
11933;SDS011;6026;48.784;9.198;2024-03-02T11:17:01;0.80;;;0.80;;
11933;SDS011;6026;48.784;9.198;2024-03-02T11:19:29;0.73;;;0.73;;
11933;SDS011;6026;48.784;9.198;2024-03-02T11:21:55;0.93;;;0.93;;
11933;SDS011;6026;48.784;9.198;2024-03-02T11:26:48;0.93;;;0.93;;
11933;SDS011;6026;48.784;9.198;2024-03-02T11:32:01;0.90;;;0.90;;
11933;SDS011;6026;48.784;9.198;2024-03-02T11:34:33;0.80;;;0.80;;
11933;SDS011;6026;48.784;9.198;2024-03-02T11:37:02;0.80;;;0.80;;
11933;SDS011;6026;48.784;9.198;2024-03-02T11:39:29;0.73;;;0.73;;
11933;SDS011;6026;48.784;9.198;2024-03-02T11:41:55;0.70;;;0.70;;
11933;SDS011;6026;48.784;9.198;2024-03-02T11:44:22;0.80;;;0.80;;
11933;SDS011;6026;48.784;9.198;2024-03-02T11:47:00;0.80;;;0.80;;
11933;SDS011;6026;48.784;9.198;2024-03-02T11:52:05;0.73;;;0.73;;
11933;SDS011;6026;48.784;9.198;2024-03-02T11:54:32;0.90;;;0.90;;
11933;SDS011;6026;48.784;9.198;2024-03-02T11:57:02;0.77;;;0.77;;
11933;SDS011;6026;48.784;9.198;2024-03-02T11:59:31;0.90;;;0.90;;
11933;SDS011;6026;48.784;9.198;2024-03-02T12:01:57;0.80;;;0.80;;
11933;SDS011;6026;48.784;9.198;2024-03-02T12:04:23;0.70;;;0.70;;
11933;SDS011;6026;48.784;9.198;2024-03-02T12:06:56;0.80;;;0.80;;
11933;SDS011;6026;48.784;9.198;2024-03-02T12:09:27;0.73;;;0.73;;
11933;SDS011;6026;48.784;9.198;2024-03-02T12:12:05;0.90;;;0.90;;
11933;SDS011;6026;48.784;9.198;2024-03-02T12:14:33;0.60;;;0.60;;
11933;SDS011;6026;48.784;9.198;2024-03-02T12:17:00;0.80;;;0.80;;
11933;SDS011;6026;48.784;9.198;2024-03-02T12:19:26;0.70;;;0.70;;
11933;SDS011;6026;48.784;9.198;2024-03-02T12:21:52;0.80;;;0.80;;
11933;SDS011;6026;48.784;9.198;2024-03-02T12:24:19;0.90;;;0.90;;
11933;SDS011;6026;48.784;9.198;2024-03-02T12:26:46;0.80;;;0.80;;
11933;SDS011;6026;48.784;9.198;2024-03-02T12:29:13;0.80;;;0.80;;
11933;SDS011;6026;48.784;9.198;2024-03-02T12:31:40;1.00;;;1.00;;
11933;SDS011;6026;48.784;9.198;2024-03-02T12:34:06;0.80;;;0.80;;
11933;SDS011;6026;48.784;9.198;2024-03-02T12:36:37;0.80;;;0.80;;
11933;SDS011;6026;48.784;9.198;2024-03-02T12:39:04;0.80;;;0.80;;
11933;SDS011;6026;48.784;9.198;2024-03-02T12:41:29;0.90;;;0.90;;
11933;SDS011;6026;48.784;9.198;2024-03-02T12:43:55;0.83;;;0.83;;
11933;SDS011;6026;48.784;9.198;2024-03-02T12:46:21;1.00;;;1.00;;
11933;SDS011;6026;48.784;9.198;2024-03-02T12:48:47;0.80;;;0.80;;
11933;SDS011;6026;48.784;9.198;2024-03-02T12:51:12;0.80;;;0.80;;
11933;SDS011;6026;48.784;9.198;2024-03-02T12:53:39;1.00;;;1.00;;
11933;SDS011;6026;48.784;9.198;2024-03-02T12:56:05;0.80;;;0.80;;
11933;SDS011;6026;48.784;9.198;2024-03-02T12:58:38;0.52;;;0.52;;
11933;SDS011;6026;48.784;9.198;2024-03-02T13:01:06;0.70;;;0.70;;
11933;SDS011;6026;48.784;9.198;2024-03-02T13:03:43;0.70;;;0.70;;
11933;SDS011;6026;48.784;9.198;2024-03-02T13:06:08;0.57;;;0.57;;
11933;SDS011;6026;48.784;9.198;2024-03-02T13:08:34;0.82;;;0.82;;
11933;SDS011;6026;48.784;9.198;2024-03-02T13:11:00;0.73;;;0.73;;
11933;SDS011;6026;48.784;9.198;2024-03-02T13:13:26;0.80;;;0.80;;
11933;SDS011;6026;48.784;9.198;2024-03-02T13:15:55;0.70;;;0.70;;
11933;SDS011;6026;48.784;9.198;2024-03-02T13:18:21;0.80;;;0.80;;
11933;SDS011;6026;48.784;9.198;2024-03-02T13:20:47;1.00;;;1.00;;
11933;SDS011;6026;48.784;9.198;2024-03-02T13:23:13;0.90;;;0.90;;
11933;SDS011;6026;48.784;9.198;2024-03-02T13:25:39;0.80;;;0.80;;
11933;SDS011;6026;48.784;9.198;2024-03-02T13:28:05;0.80;;;0.80;;
11933;SDS011;6026;48.784;9.198;2024-03-02T13:30:31;0.52;;;0.52;;
11933;SDS011;6026;48.784;9.198;2024-03-02T13:32:57;1.10;;;1.10;;
11933;SDS011;6026;48.784;9.198;2024-03-02T13:35:23;0.80;;;0.80;;
11933;SDS011;6026;48.784;9.198;2024-03-02T13:37:48;0.68;;;0.68;;
11933;SDS011;6026;48.784;9.198;2024-03-02T13:40:15;0.70;;;0.70;;
11933;SDS011;6026;48.784;9.198;2024-03-02T13:42:44;0.93;;;0.93;;
11933;SDS011;6026;48.784;9.198;2024-03-02T13:45:11;1.00;;;1.00;;
11933;SDS011;6026;48.784;9.198;2024-03-02T13:47:37;0.80;;;0.80;;
11933;SDS011;6026;48.784;9.198;2024-03-02T13:50:03;0.70;;;0.70;;
11933;SDS011;6026;48.784;9.198;2024-03-02T13:52:30;0.77;;;0.77;;
11933;SDS011;6026;48.784;9.198;2024-03-02T13:54:55;0.80;;;0.80;;
11933;SDS011;6026;48.784;9.198;2024-03-02T13:57:21;0.80;;;0.80;;
11933;SDS011;6026;48.784;9.198;2024-03-02T13:59:47;0.90;;;0.90;;
11933;SDS011;6026;48.784;9.198;2024-03-02T14:02:13;0.80;;;0.80;;
11933;SDS011;6026;48.784;9.198;2024-03-02T14:04:39;0.80;;;0.80;;
11933;SDS011;6026;48.784;9.198;2024-03-02T14:07:05;0.80;;;0.80;;
11933;SDS011;6026;48.784;9.198;2024-03-02T14:09:34;0.90;;;0.90;;
11933;SDS011;6026;48.784;9.198;2024-03-02T14:12:00;0.80;;;0.80;;
11933;SDS011;6026;48.784;9.198;2024-03-02T14:14:25;0.80;;;0.80;;
11933;SDS011;6026;48.784;9.198;2024-03-02T14:16:54;0.80;;;0.80;;
11933;SDS011;6026;48.784;9.198;2024-03-02T14:19:29;0.90;;;0.90;;
11933;SDS011;6026;48.784;9.198;2024-03-02T14:21:55;0.80;;;0.80;;
11933;SDS011;6026;48.784;9.198;2024-03-02T14:24:21;1.00;;;1.00;;
11933;SDS011;6026;48.784;9.198;2024-03-02T14:26:50;0.80;;;0.80;;
11933;SDS011;6026;48.784;9.198;2024-03-02T14:29:19;0.90;;;0.90;;
11933;SDS011;6026;48.784;9.198;2024-03-02T14:31:44;0.90;;;0.90;;
11933;SDS011;6026;48.784;9.198;2024-03-02T14:34:13;0.90;;;0.90;;
11933;SDS011;6026;48.784;9.198;2024-03-02T14:36:39;0.90;;;0.90;;
11933;SDS011;6026;48.784;9.198;2024-03-02T14:39:05;0.80;;;0.80;;
11933;SDS011;6026;48.784;9.198;2024-03-02T14:41:35;0.85;;;0.85;;
11933;SDS011;6026;48.784;9.198;2024-03-02T14:44:01;1.00;;;1.00;;
11933;SDS011;6026;48.784;9.198;2024-03-02T14:46:26;0.77;;;0.77;;
11933;SDS011;6026;48.784;9.198;2024-03-02T14:48:52;0.80;;;0.80;;
11933;SDS011;6026;48.784;9.198;2024-03-02T14:51:17;0.65;;;0.65;;
11933;SDS011;6026;48.784;9.198;2024-03-02T14:53:43;0.90;;;0.90;;
11933;SDS011;6026;48.784;9.198;2024-03-02T14:56:09;0.80;;;0.80;;
11933;SDS011;6026;48.784;9.198;2024-03-02T14:58:34;0.90;;;0.90;;
11933;SDS011;6026;48.784;9.198;2024-03-02T15:01:01;0.70;;;0.70;;
11933;SDS011;6026;48.784;9.198;2024-03-02T15:03:28;2.13;;;2.07;;
11933;SDS011;6026;48.784;9.198;2024-03-02T15:05:53;0.90;;;0.90;;
11933;SDS011;6026;48.784;9.198;2024-03-02T15:08:19;0.70;;;0.70;;
11933;SDS011;6026;48.784;9.198;2024-03-02T15:10:45;0.80;;;0.80;;